sensor_id;sensor_type;location;lat;lon;timestamp;P1;durP1;ratioP1;P2;durP2;ratioP2
71558;SDS011;59382;43.852;25.952;2024-03-02T00:02:12;11.75;;;3.67;;
71558;SDS011;59382;43.852;25.952;2024-03-02T00:04:38;11.05;;;3.00;;
71558;SDS011;59382;43.852;25.952;2024-03-02T00:07:03;9.77;;;2.80;;
71558;SDS011;59382;43.852;25.952;2024-03-02T00:09:29;11.25;;;2.72;;
71558;SDS011;59382;43.852;25.952;2024-03-02T00:11:55;12.82;;;3.30;;
71558;SDS011;59382;43.852;25.952;2024-03-02T00:14:21;8.15;;;3.03;;
71558;SDS011;59382;43.852;25.952;2024-03-02T00:16:49;9.70;;;2.30;;
71558;SDS011;59382;43.852;25.952;2024-03-02T00:19:16;7.78;;;3.25;;
71558;SDS011;59382;43.852;25.952;2024-03-02T00:21:42;11.98;;;3.10;;
71558;SDS011;59382;43.852;25.952;2024-03-02T00:24:12;6.35;;;2.85;;
71558;SDS011;59382;43.852;25.952;2024-03-02T00:26:45;5.40;;;2.15;;
71558;SDS011;59382;43.852;25.952;2024-03-02T00:29:11;6.95;;;2.70;;
71558;SDS011;59382;43.852;25.952;2024-03-02T00:31:43;11.60;;;2.35;;
71558;SDS011;59382;43.852;25.952;2024-03-02T00:34:09;9.70;;;2.85;;
71558;SDS011;59382;43.852;25.952;2024-03-02T00:36:38;9.18;;;3.40;;
71558;SDS011;59382;43.852;25.952;2024-03-02T00:39:04;9.77;;;3.00;;
71558;SDS011;59382;43.852;25.952;2024-03-02T00:41:33;7.65;;;3.05;;
71558;SDS011;59382;43.852;25.952;2024-03-02T00:44:00;8.52;;;2.78;;
71558;SDS011;59382;43.852;25.952;2024-03-02T00:46:34;13.00;;;3.15;;
71558;SDS011;59382;43.852;25.952;2024-03-02T00:49:02;3.80;;;2.58;;
71558;SDS011;59382;43.852;25.952;2024-03-02T00:51:30;7.88;;;2.78;;
71558;SDS011;59382;43.852;25.952;2024-03-02T00:54:00;7.22;;;2.63;;
71558;SDS011;59382;43.852;25.952;2024-03-02T00:56:29;5.47;;;2.47;;
71558;SDS011;59382;43.852;25.952;2024-03-02T00:58:55;6.68;;;2.50;;
71558;SDS011;59382;43.852;25.952;2024-03-02T01:01:22;6.47;;;3.30;;
71558;SDS011;59382;43.852;25.952;2024-03-02T01:03:50;12.30;;;3.30;;
71558;SDS011;59382;43.852;25.952;2024-03-02T01:06:17;5.60;;;2.95;;
71558;SDS011;59382;43.852;25.952;2024-03-02T01:08:44;5.30;;;3.00;;
71558;SDS011;59382;43.852;25.952;2024-03-02T01:11:10;8.05;;;2.95;;
71558;SDS011;59382;43.852;25.952;2024-03-02T01:13:36;11.43;;;2.92;;
71558;SDS011;59382;43.852;25.952;2024-03-02T01:16:01;9.07;;;3.80;;
71558;SDS011;59382;43.852;25.952;2024-03-02T01:18:27;8.15;;;3.00;;
71558;SDS011;59382;43.852;25.952;2024-03-02T01:20:53;4.18;;;2.38;;
71558;SDS011;59382;43.852;25.952;2024-03-02T01:23:24;11.70;;;2.92;;
71558;SDS011;59382;43.852;25.952;2024-03-02T01:25:50;7.55;;;3.08;;
71558;SDS011;59382;43.852;25.952;2024-03-02T01:28:17;11.60;;;3.85;;
71558;SDS011;59382;43.852;25.952;2024-03-02T01:30:45;9.60;;;4.03;;
71558;SDS011;59382;43.852;25.952;2024-03-02T01:33:11;4.72;;;2.55;;
71558;SDS011;59382;43.852;25.952;2024-03-02T01:35:37;4.97;;;3.38;;
71558;SDS011;59382;43.852;25.952;2024-03-02T01:38:03;9.23;;;3.30;;
71558;SDS011;59382;43.852;25.952;2024-03-02T01:40:29;6.63;;;3.25;;
71558;SDS011;59382;43.852;25.952;2024-03-02T01:42:54;9.07;;;4.15;;
71558;SDS011;59382;43.852;25.952;2024-03-02T01:45:20;12.43;;;4.78;;
71558;SDS011;59382;43.852;25.952;2024-03-02T01:47:47;12.63;;;5.63;;
71558;SDS011;59382;43.852;25.952;2024-03-02T01:50:12;12.52;;;5.63;;
71558;SDS011;59382;43.852;25.952;2024-03-02T01:52:38;7.10;;;3.78;;
71558;SDS011;59382;43.852;25.952;2024-03-02T01:55:04;9.20;;;4.10;;
71558;SDS011;59382;43.852;25.952;2024-03-02T01:57:31;13.32;;;4.55;;
71558;SDS011;59382;43.852;25.952;2024-03-02T01:59:57;16.05;;;5.60;;
71558;SDS011;59382;43.852;25.952;2024-03-02T02:02:23;8.57;;;4.07;;
71558;SDS011;59382;43.852;25.952;2024-03-02T02:04:49;14.48;;;5.03;;
71558;SDS011;59382;43.852;25.952;2024-03-02T02:07:14;18.52;;;6.32;;
71558;SDS011;59382;43.852;25.952;2024-03-02T02:09:43;17.20;;;5.95;;
71558;SDS011;59382;43.852;25.952;2024-03-02T02:12:12;21.65;;;5.90;;
71558;SDS011;59382;43.852;25.952;2024-03-02T02:14:37;13.00;;;5.97;;
71558;SDS011;59382;43.852;25.952;2024-03-02T02:17:05;13.85;;;5.40;;
71558;SDS011;59382;43.852;25.952;2024-03-02T02:19:30;14.52;;;5.28;;
71558;SDS011;59382;43.852;25.952;2024-03-02T02:21:56;15.95;;;6.00;;
71558;SDS011;59382;43.852;25.952;2024-03-02T02:24:21;16.55;;;5.57;;
71558;SDS011;59382;43.852;25.952;2024-03-02T02:26:47;12.18;;;4.80;;
71558;SDS011;59382;43.852;25.952;2024-03-02T02:29:12;16.42;;;5.18;;
71558;SDS011;59382;43.852;25.952;2024-03-02T02:31:38;11.15;;;4.53;;
71558;SDS011;59382;43.852;25.952;2024-03-02T02:34:05;21.45;;;5.93;;
71558;SDS011;59382;43.852;25.952;2024-03-02T02:36:31;11.88;;;5.03;;
71558;SDS011;59382;43.852;25.952;2024-03-02T02:39:00;16.48;;;5.65;;
71558;SDS011;59382;43.852;25.952;2024-03-02T02:41:29;14.07;;;5.82;;
71558;SDS011;59382;43.852;25.952;2024-03-02T02:43:54;9.63;;;5.18;;
71558;SDS011;59382;43.852;25.952;2024-03-02T02:46:20;22.50;;;6.97;;
71558;SDS011;59382;43.852;25.952;2024-03-02T02:48:46;14.40;;;6.05;;
71558;SDS011;59382;43.852;25.952;2024-03-02T02:51:11;21.38;;;6.63;;
71558;SDS011;59382;43.852;25.952;2024-03-02T02:53:37;18.65;;;6.72;;
71558;SDS011;59382;43.852;25.952;2024-03-02T02:56:05;15.35;;;6.63;;
71558;SDS011;59382;43.852;25.952;2024-03-02T02:58:31;19.65;;;7.10;;
71558;SDS011;59382;43.852;25.952;2024-03-02T03:00:57;20.08;;;7.18;;
71558;SDS011;59382;43.852;25.952;2024-03-02T03:03:22;14.60;;;7.43;;
71558;SDS011;59382;43.852;25.952;2024-03-02T03:05:48;13.05;;;6.53;;
71558;SDS011;59382;43.852;25.952;2024-03-02T03:08:14;12.20;;;6.25;;
71558;SDS011;59382;43.852;25.952;2024-03-02T03:10:41;14.57;;;7.00;;
71558;SDS011;59382;43.852;25.952;2024-03-02T03:13:06;21.20;;;7.75;;
71558;SDS011;59382;43.852;25.952;2024-03-02T03:15:34;23.88;;;7.60;;
71558;SDS011;59382;43.852;25.952;2024-03-02T03:18:01;22.58;;;8.85;;
71558;SDS011;59382;43.852;25.952;2024-03-02T03:20:29;21.63;;;9.95;;
71558;SDS011;59382;43.852;25.952;2024-03-02T03:22:54;30.65;;;10.70;;
71558;SDS011;59382;43.852;25.952;2024-03-02T03:25:23;25.65;;;10.45;;
71558;SDS011;59382;43.852;25.952;2024-03-02T03:27:49;32.22;;;11.13;;
71558;SDS011;59382;43.852;25.952;2024-03-02T03:30:14;26.83;;;10.80;;
71558;SDS011;59382;43.852;25.952;2024-03-02T03:32:40;35.30;;;11.65;;
71558;SDS011;59382;43.852;25.952;2024-03-02T03:35:06;43.65;;;11.43;;
71558;SDS011;59382;43.852;25.952;2024-03-02T03:37:32;28.35;;;10.75;;
71558;SDS011;59382;43.852;25.952;2024-03-02T03:40:07;27.35;;;9.85;;
71558;SDS011;59382;43.852;25.952;2024-03-02T03:42:36;22.38;;;8.75;;
71558;SDS011;59382;43.852;25.952;2024-03-02T03:45:02;25.67;;;10.32;;
71558;SDS011;59382;43.852;25.952;2024-03-02T03:47:28;29.55;;;9.02;;
71558;SDS011;59382;43.852;25.952;2024-03-02T03:49:53;29.90;;;8.85;;
71558;SDS011;59382;43.852;25.952;2024-03-02T03:52:19;29.90;;;9.02;;
71558;SDS011;59382;43.852;25.952;2024-03-02T03:54:46;20.20;;;8.23;;
71558;SDS011;59382;43.852;25.952;2024-03-02T03:57:11;30.38;;;9.50;;
71558;SDS011;59382;43.852;25.952;2024-03-02T03:59:37;19.52;;;7.65;;
71558;SDS011;59382;43.852;25.952;2024-03-02T04:02:03;24.17;;;7.38;;
71558;SDS011;59382;43.852;25.952;2024-03-02T04:04:34;24.50;;;7.38;;
71558;SDS011;59382;43.852;25.952;2024-03-02T04:06:59;21.48;;;6.25;;
71558;SDS011;59382;43.852;25.952;2024-03-02T04:09:26;19.25;;;6.63;;
71558;SDS011;59382;43.852;25.952;2024-03-02T04:11:51;26.23;;;7.15;;
71558;SDS011;59382;43.852;25.952;2024-03-02T04:14:17;18.98;;;7.30;;
71558;SDS011;59382;43.852;25.952;2024-03-02T04:16:43;17.90;;;7.60;;
71558;SDS011;59382;43.852;25.952;2024-03-02T04:19:09;21.23;;;6.93;;
71558;SDS011;59382;43.852;25.952;2024-03-02T04:21:35;36.58;;;8.75;;
71558;SDS011;59382;43.852;25.952;2024-03-02T04:24:01;19.38;;;7.38;;
71558;SDS011;59382;43.852;25.952;2024-03-02T04:26:26;25.25;;;6.60;;
71558;SDS011;59382;43.852;25.952;2024-03-02T04:28:52;19.85;;;6.30;;
71558;SDS011;59382;43.852;25.952;2024-03-02T04:31:19;32.75;;;6.68;;
71558;SDS011;59382;43.852;25.952;2024-03-02T04:33:45;18.73;;;5.72;;
71558;SDS011;59382;43.852;25.952;2024-03-02T04:36:11;28.55;;;6.45;;
71558;SDS011;59382;43.852;25.952;2024-03-02T04:38:36;28.70;;;5.20;;
71558;SDS011;59382;43.852;25.952;2024-03-02T04:41:03;11.60;;;4.30;;
71558;SDS011;59382;43.852;25.952;2024-03-02T04:43:31;14.10;;;5.38;;
71558;SDS011;59382;43.852;25.952;2024-03-02T04:45:57;15.57;;;5.53;;
71558;SDS011;59382;43.852;25.952;2024-03-02T04:48:23;20.45;;;4.85;;
71558;SDS011;59382;43.852;25.952;2024-03-02T04:50:49;9.77;;;4.07;;
71558;SDS011;59382;43.852;25.952;2024-03-02T04:53:14;11.48;;;3.97;;
71558;SDS011;59382;43.852;25.952;2024-03-02T04:55:40;19.95;;;4.88;;
71558;SDS011;59382;43.852;25.952;2024-03-02T04:58:05;12.40;;;4.15;;
71558;SDS011;59382;43.852;25.952;2024-03-02T05:00:32;11.82;;;3.85;;
71558;SDS011;59382;43.852;25.952;2024-03-02T05:02:57;15.10;;;4.55;;
71558;SDS011;59382;43.852;25.952;2024-03-02T05:05:23;14.63;;;5.97;;
71558;SDS011;59382;43.852;25.952;2024-03-02T05:07:49;14.75;;;4.50;;
71558;SDS011;59382;43.852;25.952;2024-03-02T05:10:14;13.32;;;4.30;;
71558;SDS011;59382;43.852;25.952;2024-03-02T05:12:40;10.30;;;4.53;;
71558;SDS011;59382;43.852;25.952;2024-03-02T05:15:12;12.70;;;4.18;;
71558;SDS011;59382;43.852;25.952;2024-03-02T05:17:39;13.45;;;3.67;;
71558;SDS011;59382;43.852;25.952;2024-03-02T05:20:05;11.15;;;3.88;;
71558;SDS011;59382;43.852;25.952;2024-03-02T05:22:33;10.05;;;3.38;;
71558;SDS011;59382;43.852;25.952;2024-03-02T05:24:59;13.02;;;3.65;;
71558;SDS011;59382;43.852;25.952;2024-03-02T05:27:26;21.20;;;4.20;;
71558;SDS011;59382;43.852;25.952;2024-03-02T05:29:52;14.80;;;4.70;;
71558;SDS011;59382;43.852;25.952;2024-03-02T05:32:17;12.52;;;4.22;;
71558;SDS011;59382;43.852;25.952;2024-03-02T05:34:43;9.52;;;3.47;;
71558;SDS011;59382;43.852;25.952;2024-03-02T05:37:08;14.93;;;5.57;;
71558;SDS011;59382;43.852;25.952;2024-03-02T05:39:34;69.93;;;20.88;;
71558;SDS011;59382;43.852;25.952;2024-03-02T05:41:59;18.15;;;8.77;;
71558;SDS011;59382;43.852;25.952;2024-03-02T05:44:25;21.02;;;9.18;;
71558;SDS011;59382;43.852;25.952;2024-03-02T05:46:50;11.00;;;6.57;;
71558;SDS011;59382;43.852;25.952;2024-03-02T05:49:16;13.80;;;5.50;;
71558;SDS011;59382;43.852;25.952;2024-03-02T05:51:41;8.90;;;5.10;;
71558;SDS011;59382;43.852;25.952;2024-03-02T05:54:07;8.90;;;4.85;;
71558;SDS011;59382;43.852;25.952;2024-03-02T05:56:32;10.30;;;5.15;;
71558;SDS011;59382;43.852;25.952;2024-03-02T05:58:58;12.82;;;5.50;;
71558;SDS011;59382;43.852;25.952;2024-03-02T06:01:41;8.63;;;4.15;;
71558;SDS011;59382;43.852;25.952;2024-03-02T06:04:08;8.90;;;4.80;;
71558;SDS011;59382;43.852;25.952;2024-03-02T06:06:36;8.93;;;4.30;;
71558;SDS011;59382;43.852;25.952;2024-03-02T06:09:02;9.73;;;4.93;;
71558;SDS011;59382;43.852;25.952;2024-03-02T06:11:35;7.88;;;4.40;;
71558;SDS011;59382;43.852;25.952;2024-03-02T06:14:06;7.78;;;3.95;;
71558;SDS011;59382;43.852;25.952;2024-03-02T06:16:32;8.65;;;4.53;;
71558;SDS011;59382;43.852;25.952;2024-03-02T06:18:59;9.63;;;4.20;;
71558;SDS011;59382;43.852;25.952;2024-03-02T06:21:25;6.68;;;3.70;;
71558;SDS011;59382;43.852;25.952;2024-03-02T06:23:51;10.07;;;4.03;;
71558;SDS011;59382;43.852;25.952;2024-03-02T06:26:16;9.45;;;4.07;;
71558;SDS011;59382;43.852;25.952;2024-03-02T06:28:43;8.70;;;4.55;;
71558;SDS011;59382;43.852;25.952;2024-03-02T06:31:09;12.25;;;4.18;;
71558;SDS011;59382;43.852;25.952;2024-03-02T06:33:34;11.43;;;4.63;;
71558;SDS011;59382;43.852;25.952;2024-03-02T06:36:00;13.00;;;4.10;;
71558;SDS011;59382;43.852;25.952;2024-03-02T06:38:26;5.35;;;4.00;;
71558;SDS011;59382;43.852;25.952;2024-03-02T06:40:52;11.68;;;4.60;;
71558;SDS011;59382;43.852;25.952;2024-03-02T06:43:17;12.45;;;4.97;;
71558;SDS011;59382;43.852;25.952;2024-03-02T06:45:43;7.43;;;4.30;;
71558;SDS011;59382;43.852;25.952;2024-03-02T06:48:08;11.85;;;4.47;;
71558;SDS011;59382;43.852;25.952;2024-03-02T06:50:34;10.10;;;4.95;;
71558;SDS011;59382;43.852;25.952;2024-03-02T06:52:59;6.47;;;4.18;;
71558;SDS011;59382;43.852;25.952;2024-03-02T06:55:25;9.05;;;4.38;;
71558;SDS011;59382;43.852;25.952;2024-03-02T06:57:51;7.45;;;3.50;;
71558;SDS011;59382;43.852;25.952;2024-03-02T07:00:17;14.38;;;5.03;;
71558;SDS011;59382;43.852;25.952;2024-03-02T07:02:43;8.70;;;4.50;;
71558;SDS011;59382;43.852;25.952;2024-03-02T07:05:10;13.60;;;4.57;;
71558;SDS011;59382;43.852;25.952;2024-03-02T07:07:36;12.18;;;4.88;;
71558;SDS011;59382;43.852;25.952;2024-03-02T07:10:03;8.15;;;3.85;;
71558;SDS011;59382;43.852;25.952;2024-03-02T07:12:34;17.60;;;5.43;;
71558;SDS011;59382;43.852;25.952;2024-03-02T07:15:00;10.20;;;5.10;;
71558;SDS011;59382;43.852;25.952;2024-03-02T07:17:28;9.43;;;5.18;;
71558;SDS011;59382;43.852;25.952;2024-03-02T07:19:54;18.20;;;5.60;;
71558;SDS011;59382;43.852;25.952;2024-03-02T07:22:20;9.70;;;5.22;;
71558;SDS011;59382;43.852;25.952;2024-03-02T07:24:46;8.65;;;4.97;;
71558;SDS011;59382;43.852;25.952;2024-03-02T07:27:12;11.63;;;5.32;;
71558;SDS011;59382;43.852;25.952;2024-03-02T07:29:38;13.45;;;5.85;;
71558;SDS011;59382;43.852;25.952;2024-03-02T07:32:05;15.00;;;5.38;;
71558;SDS011;59382;43.852;25.952;2024-03-02T07:34:31;14.43;;;6.18;;
71558;SDS011;59382;43.852;25.952;2024-03-02T07:36:56;12.45;;;5.60;;
71558;SDS011;59382;43.852;25.952;2024-03-02T07:39:22;10.82;;;5.25;;
71558;SDS011;59382;43.852;25.952;2024-03-02T07:41:48;9.20;;;5.03;;
71558;SDS011;59382;43.852;25.952;2024-03-02T07:44:14;7.07;;;4.53;;
71558;SDS011;59382;43.852;25.952;2024-03-02T07:46:41;6.32;;;3.75;;
71558;SDS011;59382;43.852;25.952;2024-03-02T07:49:07;10.98;;;6.07;;
71558;SDS011;59382;43.852;25.952;2024-03-02T07:51:33;13.38;;;5.55;;
71558;SDS011;59382;43.852;25.952;2024-03-02T07:53:58;10.68;;;4.57;;
71558;SDS011;59382;43.852;25.952;2024-03-02T07:56:24;7.50;;;4.60;;
71558;SDS011;59382;43.852;25.952;2024-03-02T07:58:50;10.20;;;4.50;;
71558;SDS011;59382;43.852;25.952;2024-03-02T08:01:15;8.48;;;4.15;;
71558;SDS011;59382;43.852;25.952;2024-03-02T08:03:42;9.65;;;3.97;;
71558;SDS011;59382;43.852;25.952;2024-03-02T08:06:13;8.52;;;4.80;;
71558;SDS011;59382;43.852;25.952;2024-03-02T08:08:40;9.70;;;4.65;;
71558;SDS011;59382;43.852;25.952;2024-03-02T08:11:05;10.23;;;4.75;;
71558;SDS011;59382;43.852;25.952;2024-03-02T08:13:31;13.73;;;4.68;;
71558;SDS011;59382;43.852;25.952;2024-03-02T08:15:57;11.00;;;4.60;;
71558;SDS011;59382;43.852;25.952;2024-03-02T08:18:23;8.05;;;4.53;;
71558;SDS011;59382;43.852;25.952;2024-03-02T08:20:49;9.25;;;4.95;;
71558;SDS011;59382;43.852;25.952;2024-03-02T08:23:14;10.85;;;4.45;;
71558;SDS011;59382;43.852;25.952;2024-03-02T08:25:40;8.05;;;4.43;;
71558;SDS011;59382;43.852;25.952;2024-03-02T08:28:05;10.30;;;5.00;;
71558;SDS011;59382;43.852;25.952;2024-03-02T08:30:31;10.88;;;5.05;;
71558;SDS011;59382;43.852;25.952;2024-03-02T08:32:56;9.93;;;4.38;;
71558;SDS011;59382;43.852;25.952;2024-03-02T08:35:22;12.93;;;5.47;;
71558;SDS011;59382;43.852;25.952;2024-03-02T08:37:48;9.32;;;4.50;;
71558;SDS011;59382;43.852;25.952;2024-03-02T08:40:14;16.02;;;5.82;;
71558;SDS011;59382;43.852;25.952;2024-03-02T08:42:40;8.90;;;4.63;;
71558;SDS011;59382;43.852;25.952;2024-03-02T08:45:06;6.78;;;4.90;;
71558;SDS011;59382;43.852;25.952;2024-03-02T08:47:32;10.93;;;5.05;;
71558;SDS011;59382;43.852;25.952;2024-03-02T08:49:59;20.40;;;5.30;;
71558;SDS011;59382;43.852;25.952;2024-03-02T08:52:25;11.00;;;5.32;;
71558;SDS011;59382;43.852;25.952;2024-03-02T08:54:51;7.38;;;4.70;;
71558;SDS011;59382;43.852;25.952;2024-03-02T08:57:16;6.35;;;4.25;;
71558;SDS011;59382;43.852;25.952;2024-03-02T08:59:42;10.73;;;5.32;;
71558;SDS011;59382;43.852;25.952;2024-03-02T09:02:09;11.32;;;5.75;;
71558;SDS011;59382;43.852;25.952;2024-03-02T09:04:34;12.35;;;5.50;;
71558;SDS011;59382;43.852;25.952;2024-03-02T09:07:00;20.70;;;5.90;;
71558;SDS011;59382;43.852;25.952;2024-03-02T09:09:28;9.07;;;4.55;;
71558;SDS011;59382;43.852;25.952;2024-03-02T09:11:54;9.73;;;4.45;;
71558;SDS011;59382;43.852;25.952;2024-03-02T09:14:20;6.75;;;4.18;;
71558;SDS011;59382;43.852;25.952;2024-03-02T09:16:46;11.70;;;4.88;;
71558;SDS011;59382;43.852;25.952;2024-03-02T09:19:12;7.28;;;4.50;;
71558;SDS011;59382;43.852;25.952;2024-03-02T09:21:37;8.15;;;4.20;;
71558;SDS011;59382;43.852;25.952;2024-03-02T09:24:03;7.07;;;4.20;;
71558;SDS011;59382;43.852;25.952;2024-03-02T09:26:29;8.55;;;4.72;;
71558;SDS011;59382;43.852;25.952;2024-03-02T09:28:54;9.90;;;4.30;;
71558;SDS011;59382;43.852;25.952;2024-03-02T09:31:20;11.45;;;4.45;;
71558;SDS011;59382;43.852;25.952;2024-03-02T09:33:45;11.10;;;4.75;;
71558;SDS011;59382;43.852;25.952;2024-03-02T09:36:18;16.00;;;4.32;;
71558;SDS011;59382;43.852;25.952;2024-03-02T09:41:16;7.78;;;4.43;;
71558;SDS011;59382;43.852;25.952;2024-03-02T09:43:42;11.52;;;5.00;;
71558;SDS011;59382;43.852;25.952;2024-03-02T09:46:08;8.23;;;4.20;;
71558;SDS011;59382;43.852;25.952;2024-03-02T09:48:35;15.23;;;4.95;;
71558;SDS011;59382;43.852;25.952;2024-03-02T09:51:00;13.13;;;4.15;;
71558;SDS011;59382;43.852;25.952;2024-03-02T09:53:30;10.18;;;4.57;;
71558;SDS011;59382;43.852;25.952;2024-03-02T09:55:58;12.80;;;5.15;;
71558;SDS011;59382;43.852;25.952;2024-03-02T09:58:27;15.10;;;4.50;;
71558;SDS011;59382;43.852;25.952;2024-03-02T10:00:53;11.27;;;5.22;;
71558;SDS011;59382;43.852;25.952;2024-03-02T10:03:19;8.23;;;5.03;;
71558;SDS011;59382;43.852;25.952;2024-03-02T10:05:44;10.60;;;5.32;;
71558;SDS011;59382;43.852;25.952;2024-03-02T10:08:10;9.10;;;4.63;;
71558;SDS011;59382;43.852;25.952;2024-03-02T10:13:07;10.63;;;4.68;;
71558;SDS011;59382;43.852;25.952;2024-03-02T10:15:34;8.75;;;4.72;;
71558;SDS011;59382;43.852;25.952;2024-03-02T10:18:02;13.30;;;5.05;;
71558;SDS011;59382;43.852;25.952;2024-03-02T10:20:33;11.13;;;5.10;;
71558;SDS011;59382;43.852;25.952;2024-03-02T10:23:15;8.75;;;4.40;;
71558;SDS011;59382;43.852;25.952;2024-03-02T10:25:42;10.65;;;5.20;;
71558;SDS011;59382;43.852;25.952;2024-03-02T10:28:09;7.15;;;4.65;;
71558;SDS011;59382;43.852;25.952;2024-03-02T10:30:35;12.70;;;5.18;;
71558;SDS011;59382;43.852;25.952;2024-03-02T10:33:01;14.25;;;5.90;;
71558;SDS011;59382;43.852;25.952;2024-03-02T10:35:28;9.55;;;4.70;;
71558;SDS011;59382;43.852;25.952;2024-03-02T10:37:54;9.25;;;4.88;;
71558;SDS011;59382;43.852;25.952;2024-03-02T10:40:23;9.35;;;4.75;;
71558;SDS011;59382;43.852;25.952;2024-03-02T10:42:49;14.10;;;5.65;;
71558;SDS011;59382;43.852;25.952;2024-03-02T10:45:16;13.07;;;5.40;;
71558;SDS011;59382;43.852;25.952;2024-03-02T10:47:42;8.70;;;5.00;;
71558;SDS011;59382;43.852;25.952;2024-03-02T10:50:11;12.50;;;5.00;;
71558;SDS011;59382;43.852;25.952;2024-03-02T10:52:37;10.07;;;5.10;;
71558;SDS011;59382;43.852;25.952;2024-03-02T10:55:04;14.85;;;5.07;;
71558;SDS011;59382;43.852;25.952;2024-03-02T11:00:19;13.82;;;5.78;;
71558;SDS011;59382;43.852;25.952;2024-03-02T11:02:57;12.75;;;5.18;;
71558;SDS011;59382;43.852;25.952;2024-03-02T11:05:34;23.92;;;6.07;;
71558;SDS011;59382;43.852;25.952;2024-03-02T11:08:02;11.40;;;5.55;;
71558;SDS011;59382;43.852;25.952;2024-03-02T11:10:37;15.07;;;5.95;;
71558;SDS011;59382;43.852;25.952;2024-03-02T11:13:11;11.45;;;4.93;;
71558;SDS011;59382;43.852;25.952;2024-03-02T11:15:37;16.48;;;6.30;;
71558;SDS011;59382;43.852;25.952;2024-03-02T11:18:05;13.13;;;6.03;;
71558;SDS011;59382;43.852;25.952;2024-03-02T11:20:35;10.40;;;5.45;;
71558;SDS011;59382;43.852;25.952;2024-03-02T11:23:07;16.00;;;5.82;;
71558;SDS011;59382;43.852;25.952;2024-03-02T11:25:33;18.80;;;6.38;;
71558;SDS011;59382;43.852;25.952;2024-03-02T11:28:00;14.20;;;6.20;;
71558;SDS011;59382;43.852;25.952;2024-03-02T11:33:01;13.90;;;6.10;;
71558;SDS011;59382;43.852;25.952;2024-03-02T11:35:34;8.68;;;5.28;;
71558;SDS011;59382;43.852;25.952;2024-03-02T11:38:00;12.50;;;5.60;;
71558;SDS011;59382;43.852;25.952;2024-03-02T11:40:28;13.25;;;5.30;;
71558;SDS011;59382;43.852;25.952;2024-03-02T11:42:55;7.28;;;4.47;;
71558;SDS011;59382;43.852;25.952;2024-03-02T11:45:24;9.15;;;5.85;;
71558;SDS011;59382;43.852;25.952;2024-03-02T11:47:51;15.77;;;6.07;;
71558;SDS011;59382;43.852;25.952;2024-03-02T11:53:23;9.25;;;5.00;;
71558;SDS011;59382;43.852;25.952;2024-03-02T11:55:48;9.02;;;4.82;;
71558;SDS011;59382;43.852;25.952;2024-03-02T11:58:15;12.70;;;5.35;;
71558;SDS011;59382;43.852;25.952;2024-03-02T12:00:55;13.20;;;4.95;;
71558;SDS011;59382;43.852;25.952;2024-03-02T12:03:24;11.32;;;5.00;;
71558;SDS011;59382;43.852;25.952;2024-03-02T12:05:52;7.38;;;4.55;;
71558;SDS011;59382;43.852;25.952;2024-03-02T12:08:18;12.45;;;4.72;;
71558;SDS011;59382;43.852;25.952;2024-03-02T12:10:55;7.70;;;4.88;;
71558;SDS011;59382;43.852;25.952;2024-03-02T12:13:22;8.52;;;5.10;;
71558;SDS011;59382;43.852;25.952;2024-03-02T12:15:47;11.18;;;5.35;;
71558;SDS011;59382;43.852;25.952;2024-03-02T12:18:17;8.45;;;4.68;;
71558;SDS011;59382;43.852;25.952;2024-03-02T12:20:43;11.93;;;4.88;;
71558;SDS011;59382;43.852;25.952;2024-03-02T12:23:09;12.50;;;5.13;;
71558;SDS011;59382;43.852;25.952;2024-03-02T12:25:35;18.35;;;4.90;;
71558;SDS011;59382;43.852;25.952;2024-03-02T12:28:01;8.93;;;4.93;;
71558;SDS011;59382;43.852;25.952;2024-03-02T12:30:29;10.30;;;5.28;;
71558;SDS011;59382;43.852;25.952;2024-03-02T12:32:55;10.73;;;5.00;;
71558;SDS011;59382;43.852;25.952;2024-03-02T12:35:21;11.65;;;5.45;;
71558;SDS011;59382;43.852;25.952;2024-03-02T12:37:48;8.93;;;5.05;;
71558;SDS011;59382;43.852;25.952;2024-03-02T12:40:15;12.27;;;5.47;;
71558;SDS011;59382;43.852;25.952;2024-03-02T12:42:43;7.28;;;5.00;;
71558;SDS011;59382;43.852;25.952;2024-03-02T12:45:10;11.05;;;4.57;;
71558;SDS011;59382;43.852;25.952;2024-03-02T12:47:36;8.48;;;4.80;;
71558;SDS011;59382;43.852;25.952;2024-03-02T12:50:03;8.93;;;4.95;;
71558;SDS011;59382;43.852;25.952;2024-03-02T12:52:29;12.73;;;5.60;;
71558;SDS011;59382;43.852;25.952;2024-03-02T12:54:57;11.98;;;4.63;;
71558;SDS011;59382;43.852;25.952;2024-03-02T12:57:33;13.98;;;5.05;;
71558;SDS011;59382;43.852;25.952;2024-03-02T12:59:59;9.77;;;5.35;;
71558;SDS011;59382;43.852;25.952;2024-03-02T13:02:29;13.65;;;5.20;;
71558;SDS011;59382;43.852;25.952;2024-03-02T13:04:57;9.63;;;5.57;;
71558;SDS011;59382;43.852;25.952;2024-03-02T13:07:23;10.80;;;5.13;;
71558;SDS011;59382;43.852;25.952;2024-03-02T13:09:50;9.40;;;4.97;;
71558;SDS011;59382;43.852;25.952;2024-03-02T13:12:16;9.68;;;4.93;;
71558;SDS011;59382;43.852;25.952;2024-03-02T13:14:43;8.07;;;4.75;;
71558;SDS011;59382;43.852;25.952;2024-03-02T13:17:09;11.15;;;5.32;;
71558;SDS011;59382;43.852;25.952;2024-03-02T13:19:34;15.73;;;5.15;;
71558;SDS011;59382;43.852;25.952;2024-03-02T13:22:00;10.70;;;5.00;;
71558;SDS011;59382;43.852;25.952;2024-03-02T13:24:28;10.88;;;4.95;;
71558;SDS011;59382;43.852;25.952;2024-03-02T13:26:55;12.55;;;5.38;;
71558;SDS011;59382;43.852;25.952;2024-03-02T13:29:23;12.65;;;4.65;;
71558;SDS011;59382;43.852;25.952;2024-03-02T13:31:49;11.30;;;4.50;;
71558;SDS011;59382;43.852;25.952;2024-03-02T13:34:15;10.50;;;5.28;;
71558;SDS011;59382;43.852;25.952;2024-03-02T13:36:41;7.53;;;4.68;;
71558;SDS011;59382;43.852;25.952;2024-03-02T13:39:06;11.73;;;5.13;;
71558;SDS011;59382;43.852;25.952;2024-03-02T13:41:34;15.98;;;5.15;;
71558;SDS011;59382;43.852;25.952;2024-03-02T13:44:00;7.78;;;4.78;;
71558;SDS011;59382;43.852;25.952;2024-03-02T13:46:27;11.52;;;5.13;;
71558;SDS011;59382;43.852;25.952;2024-03-02T13:48:52;10.90;;;4.65;;
71558;SDS011;59382;43.852;25.952;2024-03-02T13:51:19;9.43;;;5.18;;
71558;SDS011;59382;43.852;25.952;2024-03-02T13:53:46;7.13;;;5.32;;
71558;SDS011;59382;43.852;25.952;2024-03-02T13:56:12;8.45;;;4.60;;
71558;SDS011;59382;43.852;25.952;2024-03-02T13:58:37;9.23;;;4.88;;
71558;SDS011;59382;43.852;25.952;2024-03-02T14:01:06;8.38;;;4.57;;
71558;SDS011;59382;43.852;25.952;2024-03-02T14:03:31;15.60;;;5.00;;
71558;SDS011;59382;43.852;25.952;2024-03-02T14:05:57;12.50;;;5.18;;
71558;SDS011;59382;43.852;25.952;2024-03-02T14:08:23;8.52;;;4.93;;
71558;SDS011;59382;43.852;25.952;2024-03-02T14:10:48;8.30;;;4.72;;
71558;SDS011;59382;43.852;25.952;2024-03-02T14:13:14;8.45;;;4.45;;
71558;SDS011;59382;43.852;25.952;2024-03-02T14:15:41;7.80;;;3.75;;
71558;SDS011;59382;43.852;25.952;2024-03-02T14:18:07;8.13;;;4.93;;
71558;SDS011;59382;43.852;25.952;2024-03-02T14:20:35;4.70;;;3.78;;
71558;SDS011;59382;43.852;25.952;2024-03-02T14:23:01;9.88;;;4.45;;
71558;SDS011;59382;43.852;25.952;2024-03-02T14:25:32;6.43;;;3.75;;
71558;SDS011;59382;43.852;25.952;2024-03-02T14:27:59;15.70;;;7.25;;
71558;SDS011;59382;43.852;25.952;2024-03-02T14:30:25;10.35;;;5.63;;
71558;SDS011;59382;43.852;25.952;2024-03-02T14:32:50;15.38;;;5.32;;
71558;SDS011;59382;43.852;25.952;2024-03-02T14:35:16;17.92;;;7.72;;
71558;SDS011;59382;43.852;25.952;2024-03-02T14:37:41;27.58;;;12.43;;